sensor_id;sensor_type;location;lat;lon;timestamp;pressure;altitude;pressure_sealevel;temperature;humidity
9277;BME280;4676;42.678;23.244;2022-12-07T14:50:05;93713.69;;;8.59;100.00
9277;BME280;4676;42.678;23.244;2022-12-07T14:52:32;93719.28;;;8.45;100.00
9277;BME280;4676;42.678;23.244;2022-12-07T14:54:59;93725.72;;;8.30;100.00
9277;BME280;4676;42.678;23.244;2022-12-07T14:57:26;93720.28;;;8.18;100.00
9277;BME280;4676;42.678;23.244;2022-12-07T14:59:53;93712.06;;;8.36;100.00
9277;BME280;4676;42.678;23.244;2022-12-07T15:02:19;93718.56;;;8.18;100.00
9277;BME280;4676;42.678;23.244;2022-12-07T15:04:46;93729.03;;;8.09;100.00
9277;BME280;4676;42.678;23.244;2022-12-07T15:07:19;93729.22;;;8.03;100.00
9277;BME280;4676;42.678;23.244;2022-12-07T15:09:46;93736.97;;;7.98;100.00
9277;BME280;4676;42.678;23.244;2022-12-07T15:12:13;93745.94;;;7.82;100.00
9277;BME280;4676;42.678;23.244;2022-12-07T15:14:39;93740.19;;;7.79;100.00
9277;BME280;4676;42.678;23.244;2022-12-07T15:17:07;93726.72;;;7.80;100.00
9277;BME280;4676;42.678;23.244;2022-12-07T15:19:36;93737.22;;;7.68;100.00
9277;BME280;4676;42.678;23.244;2022-12-07T15:22:02;93740.78;;;7.62;100.00
9277;BME280;4676;42.678;23.244;2022-12-07T15:24:31;93735.75;;;7.85;100.00
9277;BME280;4676;42.678;23.244;2022-12-07T15:26:59;93743.88;;;7.93;100.00
9277;BME280;4676;42.678;23.244;2022-12-07T15:29:26;93703.94;;;7.58;100.00
9277;BME280;4676;42.678;23.244;2022-12-07T15:31:53;93722.25;;;7.63;100.00
9277;BME280;4676;42.678;23.244;2022-12-07T15:34:20;93752.53;;;7.63;100.00
9277;BME280;4676;42.678;23.244;2022-12-07T15:36:47;93755.56;;;7.48;100.00
9277;BME280;4676;42.678;23.244;2022-12-07T15:39:13;93747.53;;;7.37;100.00
9277;BME280;4676;42.678;23.244;2022-12-07T15:41:42;93747.78;;;7.29;100.00
9277;BME280;4676;42.678;23.244;2022-12-07T15:44:10;93756.25;;;7.27;100.00
9277;BME280;4676;42.678;23.244;2022-12-07T15:46:54;93745.59;;;7.19;100.00
9277;BME280;4676;42.678;23.244;2022-12-07T15:49:20;93748.97;;;7.44;100.00
9277;BME280;4676;42.678;23.244;2022-12-07T15:51:47;93746.56;;;7.41;100.00
9277;BME280;4676;42.678;23.244;2022-12-07T15:54:18;93740.41;;;7.23;100.00
9277;BME280;4676;42.678;23.244;2022-12-07T15:56:47;93749.03;;;7.18;100.00
9277;BME280;4676;42.678;23.244;2022-12-07T15:59:14;93753.56;;;7.07;100.00
9277;BME280;4676;42.678;23.244;2022-12-07T16:01:41;93744.22;;;7.10;100.00
9277;BME280;4676;42.678;23.244;2022-12-07T16:04:08;93748.06;;;6.95;100.00
9277;BME280;4676;42.678;23.244;2022-12-07T16:06:35;93753.38;;;6.86;100.00
9277;BME280;4676;42.678;23.244;2022-12-07T16:09:02;93742.22;;;6.93;100.00
9277;BME280;4676;42.678;23.244;2022-12-07T16:11:29;93751.91;;;6.79;100.00
9277;BME280;4676;42.678;23.244;2022-12-07T16:13:57;93757.78;;;6.80;100.00
9277;BME280;4676;42.678;23.244;2022-12-07T16:16:24;93742.75;;;6.77;100.00
9277;BME280;4676;42.678;23.244;2022-12-07T16:18:51;93749.88;;;6.90;100.00
9277;BME280;4676;42.678;23.244;2022-12-07T16:21:18;93756.22;;;6.76;100.00
9277;BME280;4676;42.678;23.244;2022-12-07T16:23:45;93754.84;;;6.66;100.00
9277;BME280;4676;42.678;23.244;2022-12-07T16:26:13;93759.16;;;6.62;100.00
9277;BME280;4676;42.678;23.244;2022-12-07T16:28:40;93770.88;;;6.63;100.00
9277;BME280;4676;42.678;23.244;2022-12-07T16:31:10;93776.03;;;6.60;100.00
9277;BME280;4676;42.678;23.244;2022-12-07T16:33:38;93763.63;;;6.54;100.00
9277;BME280;4676;42.678;23.244;2022-12-07T16:36:07;93773.72;;;6.80;100.00
9277;BME280;4676;42.678;23.244;2022-12-07T16:38:35;93774.88;;;6.70;100.00
9277;BME280;4676;42.678;23.244;2022-12-07T16:41:03;93778.41;;;6.65;100.00
9277;BME280;4676;42.678;23.244;2022-12-07T16:43:30;93754.34;;;6.54;100.00
9277;BME280;4676;42.678;23.244;2022-12-07T16:45:56;93776.06;;;6.59;100.00
9277;BME280;4676;42.678;23.244;2022-12-07T16:48:24;93785.78;;;6.41;100.00
9277;BME280;4676;42.678;23.244;2022-12-07T16:50:51;93782.59;;;6.36;100.00
9277;BME280;4676;42.678;23.244;2022-12-07T16:53:20;93761.69;;;6.62;100.00
9277;BME280;4676;42.678;23.244;2022-12-07T16:55:47;93782.72;;;6.61;100.00
9277;BME280;4676;42.678;23.244;2022-12-07T16:58:15;93789.56;;;6.56;100.00
9277;BME280;4676;42.678;23.244;2022-12-07T17:00:43;93795.28;;;6.61;100.00
9277;BME280;4676;42.678;23.244;2022-12-07T17:03:10;93784.09;;;6.70;100.00
9277;BME280;4676;42.678;23.244;2022-12-07T17:05:39;93790.94;;;6.66;100.00
9277;BME280;4676;42.678;23.244;2022-12-07T17:08:06;93789.63;;;6.82;100.00
9277;BME280;4676;42.678;23.244;2022-12-07T17:10:34;93790.91;;;6.68;100.00
9277;BME280;4676;42.678;23.244;2022-12-07T17:13:02;93783.25;;;6.71;100.00
9277;BME280;4676;42.678;23.244;2022-12-07T17:15:55;93780.25;;;6.58;100.00
9277;BME280;4676;42.678;23.244;2022-12-07T17:18:21;93772.34;;;6.70;100.00
9277;BME280;4676;42.678;23.244;2022-12-07T17:20:49;93777.94;;;6.52;100.00
9277;BME280;4676;42.678;23.244;2022-12-07T17:23:16;93776.47;;;6.45;100.00
9277;BME280;4676;42.678;23.244;2022-12-07T17:25:43;93789.44;;;6.31;100.00
9277;BME280;4676;42.678;23.244;2022-12-07T17:28:10;93776.03;;;6.31;100.00
9277;BME280;4676;42.678;23.244;2022-12-07T17:30:37;93774.66;;;6.21;100.00
9277;BME280;4676;42.678;23.244;2022-12-07T17:33:04;93791.84;;;6.36;100.00
9277;BME280;4676;42.678;23.244;2022-12-07T17:35:31;93787.47;;;6.41;100.00
9277;BME280;4676;42.678;23.244;2022-12-07T17:37:59;93802.31;;;6.22;100.00
9277;BME280;4676;42.678;23.244;2022-12-07T17:40:25;93795.19;;;6.07;100.00
9277;BME280;4676;42.678;23.244;2022-12-07T17:42:52;93772.72;;;6.01;100.00
9277;BME280;4676;42.678;23.244;2022-12-07T17:45:19;93785.28;;;6.01;100.00
9277;BME280;4676;42.678;23.244;2022-12-07T17:47:46;93783.50;;;6.05;100.00
9277;BME280;4676;42.678;23.244;2022-12-07T17:50:12;93787.34;;;6.16;100.00
9277;BME280;4676;42.678;23.244;2022-12-07T17:52:39;93794.69;;;5.94;100.00
9277;BME280;4676;42.678;23.244;2022-12-07T17:55:25;93796.59;;;5.85;100.00
9277;BME280;4676;42.678;23.244;2022-12-07T17:57:52;93784.84;;;5.85;100.00
9277;BME280;4676;42.678;23.244;2022-12-07T18:00:19;93786.63;;;5.82;100.00
9277;BME280;4676;42.678;23.244;2022-12-07T18:02:45;93779.63;;;5.62;100.00
9277;BME280;4676;42.678;23.244;2022-12-07T18:05:12;93797.78;;;5.72;100.00
9277;BME280;4676;42.678;23.244;2022-12-07T18:07:39;93808.75;;;5.69;100.00
9277;BME280;4676;42.678;23.244;2022-12-07T18:10:07;93796.19;;;5.69;100.00
9277;BME280;4676;42.678;23.244;2022-12-07T18:12:37;93812.16;;;5.67;100.00
9277;BME280;4676;42.678;23.244;2022-12-07T18:15:06;93780.03;;;5.45;100.00
9277;BME280;4676;42.678;23.244;2022-12-07T18:17:32;93798.41;;;5.47;100.00
9277;BME280;4676;42.678;23.244;2022-12-07T18:19:59;93805.72;;;5.57;100.00
9277;BME280;4676;42.678;23.244;2022-12-07T18:22:26;93825.91;;;5.53;100.00
9277;BME280;4676;42.678;23.244;2022-12-07T18:24:53;93798.59;;;5.41;100.00
9277;BME280;4676;42.678;23.244;2022-12-07T18:27:19;93805.78;;;5.55;100.00
9277;BME280;4676;42.678;23.244;2022-12-07T18:29:48;93825.97;;;5.50;100.00
9277;BME280;4676;42.678;23.244;2022-12-07T18:32:14;93832.97;;;5.39;100.00
9277;BME280;4676;42.678;23.244;2022-12-07T18:34:41;93827.09;;;5.39;100.00
9277;BME280;4676;42.678;23.244;2022-12-07T18:37:08;93839.00;;;5.32;100.00
9277;BME280;4676;42.678;23.244;2022-12-07T18:39:35;93829.19;;;5.22;100.00
9277;BME280;4676;42.678;23.244;2022-12-07T18:42:01;93835.88;;;5.23;100.00
9277;BME280;4676;42.678;23.244;2022-12-07T18:44:28;93838.03;;;5.38;100.00
9277;BME280;4676;42.678;23.244;2022-12-07T18:46:56;93841.69;;;5.25;100.00
9277;BME280;4676;42.678;23.244;2022-12-07T18:49:23;93844.88;;;5.31;100.00
9277;BME280;4676;42.678;23.244;2022-12-07T18:51:50;93836.94;;;5.48;100.00
9277;BME280;4676;42.678;23.244;2022-12-07T18:54:17;93830.28;;;5.45;100.00
9277;BME280;4676;42.678;23.244;2022-12-07T18:56:44;93841.47;;;5.34;100.00
9277;BME280;4676;42.678;23.244;2022-12-07T18:59:12;93839.81;;;5.33;100.00
9277;BME280;4676;42.678;23.244;2022-12-07T19:01:58;93847.50;;;5.27;100.00
9277;BME280;4676;42.678;23.244;2022-12-07T19:04:25;93848.13;;;5.35;100.00
9277;BME280;4676;42.678;23.244;2022-12-07T19:06:51;93859.06;;;5.34;100.00
9277;BME280;4676;42.678;23.244;2022-12-07T19:09:19;93846.50;;;5.34;100.00
9277;BME280;4676;42.678;23.244;2022-12-07T19:11:46;93847.72;;;5.18;100.00
9277;BME280;4676;42.678;23.244;2022-12-07T19:14:19;93869.31;;;5.25;100.00
9277;BME280;4676;42.678;23.244;2022-12-07T19:16:47;93856.91;;;5.19;100.00
9277;BME280;4676;42.678;23.244;2022-12-07T19:19:17;93866.84;;;5.23;100.00
9277;BME280;4676;42.678;23.244;2022-12-07T19:21:44;93858.50;;;5.21;100.00
9277;BME280;4676;42.678;23.244;2022-12-07T19:24:11;93861.59;;;5.34;100.00
9277;BME280;4676;42.678;23.244;2022-12-07T19:26:38;93789.72;;;4.93;100.00
9277;BME280;4676;42.678;23.244;2022-12-07T19:29:05;93864.97;;;5.31;100.00
9277;BME280;4676;42.678;23.244;2022-12-07T19:31:32;93841.59;;;5.29;100.00
9277;BME280;4676;42.678;23.244;2022-12-07T19:33:59;93844.34;;;5.19;100.00
9277;BME280;4676;42.678;23.244;2022-12-07T19:36:27;93847.28;;;5.36;100.00
9277;BME280;4676;42.678;23.244;2022-12-07T19:38:54;93851.59;;;5.31;100.00
9277;BME280;4676;42.678;23.244;2022-12-07T19:41:21;93855.81;;;5.30;100.00
9277;BME280;4676;42.678;23.244;2022-12-07T19:44:01;93849.13;;;5.29;100.00
9277;BME280;4676;42.678;23.244;2022-12-07T19:46:28;93863.53;;;5.21;100.00
9277;BME280;4676;42.678;23.244;2022-12-07T19:48:55;93832.09;;;5.07;100.00
9277;BME280;4676;42.678;23.244;2022-12-07T19:51:22;93857.97;;;5.10;100.00
9277;BME280;4676;42.678;23.244;2022-12-07T19:53:50;93859.41;;;5.20;100.00
9277;BME280;4676;42.678;23.244;2022-12-07T19:56:19;93855.41;;;5.12;100.00
9277;BME280;4676;42.678;23.244;2022-12-07T19:58:47;93861.44;;;5.04;100.00
9277;BME280;4676;42.678;23.244;2022-12-07T20:01:14;93861.34;;;5.08;100.00
9277;BME280;4676;42.678;23.244;2022-12-07T20:03:42;93856.47;;;5.01;100.00
9277;BME280;4676;42.678;23.244;2022-12-07T20:06:09;93861.06;;;5.20;100.00
9277;BME280;4676;42.678;23.244;2022-12-07T20:08:37;93860.66;;;5.02;100.00
9277;BME280;4676;42.678;23.244;2022-12-07T20:11:05;93864.00;;;5.03;100.00
9277;BME280;4676;42.678;23.244;2022-12-07T20:13:46;93854.00;;;5.00;100.00
9277;BME280;4676;42.678;23.244;2022-12-07T20:16:13;93870.69;;;5.02;100.00
9277;BME280;4676;42.678;23.244;2022-12-07T20:18:40;93868.97;;;5.04;100.00
9277;BME280;4676;42.678;23.244;2022-12-07T20:21:06;93875.19;;;4.88;100.00
9277;BME280;4676;42.678;23.244;2022-12-07T20:23:33;93879.16;;;4.98;100.00
9277;BME280;4676;42.678;23.244;2022-12-07T20:26:01;93886.69;;;4.98;100.00
9277;BME280;4676;42.678;23.244;2022-12-07T20:28:29;93870.13;;;4.90;100.00
9277;BME280;4676;42.678;23.244;2022-12-07T20:30:56;93875.94;;;4.92;100.00
9277;BME280;4676;42.678;23.244;2022-12-07T20:33:23;93870.84;;;4.95;100.00
9277;BME280;4676;42.678;23.244;2022-12-07T20:35:49;93879.41;;;4.86;100.00
9277;BME280;4676;42.678;23.244;2022-12-07T20:38:16;93878.53;;;4.89;100.00
9277;BME280;4676;42.678;23.244;2022-12-07T20:40:45;93896.06;;;4.90;100.00
9277;BME280;4676;42.678;23.244;2022-12-07T20:43:13;93891.88;;;4.89;100.00
9277;BME280;4676;42.678;23.244;2022-12-07T20:45:44;93900.25;;;4.90;100.00
9277;BME280;4676;42.678;23.244;2022-12-07T20:48:11;93893.53;;;4.92;100.00
9277;BME280;4676;42.678;23.244;2022-12-07T20:50:39;93893.72;;;4.83;100.00
9277;BME280;4676;42.678;23.244;2022-12-07T20:53:06;93893.81;;;4.78;100.00
9277;BME280;4676;42.678;23.244;2022-12-07T20:55:33;93888.50;;;4.92;100.00
9277;BME280;4676;42.678;23.244;2022-12-07T20:58:00;93883.50;;;4.90;100.00
9277;BME280;4676;42.678;23.244;2022-12-07T21:00:27;93891.94;;;4.88;100.00
9277;BME280;4676;42.678;23.244;2022-12-07T21:02:55;93891.13;;;4.86;100.00
9277;BME280;4676;42.678;23.244;2022-12-07T21:05:22;93873.16;;;4.67;100.00
9277;BME280;4676;42.678;23.244;2022-12-07T21:07:49;93893.88;;;4.75;100.00
9277;BME280;4676;42.678;23.244;2022-12-07T21:10:15;93888.31;;;4.61;100.00
9277;BME280;4676;42.678;23.244;2022-12-07T21:12:42;93902.50;;;4.62;100.00
9277;BME280;4676;42.678;23.244;2022-12-07T21:15:09;93877.78;;;4.45;100.00
9277;BME280;4676;42.678;23.244;2022-12-07T21:17:36;93900.06;;;4.61;100.00
9277;BME280;4676;42.678;23.244;2022-12-07T21:20:06;93885.56;;;4.72;100.00
9277;BME280;4676;42.678;23.244;2022-12-07T21:22:33;93892.09;;;4.80;100.00
9277;BME280;4676;42.678;23.244;2022-12-07T21:24:59;93880.31;;;4.82;100.00
9277;BME280;4676;42.678;23.244;2022-12-07T21:27:26;93882.22;;;4.73;100.00
9277;BME280;4676;42.678;23.244;2022-12-07T21:29:53;93883.03;;;4.73;100.00
9277;BME280;4676;42.678;23.244;2022-12-07T21:32:19;93883.88;;;4.74;100.00
9277;BME280;4676;42.678;23.244;2022-12-07T21:34:46;93874.13;;;4.60;100.00
9277;BME280;4676;42.678;23.244;2022-12-07T21:37:14;93876.44;;;4.69;100.00
9277;BME280;4676;42.678;23.244;2022-12-07T21:39:41;93862.44;;;4.58;100.00
9277;BME280;4676;42.678;23.244;2022-12-07T21:42:08;93875.94;;;4.53;100.00
9277;BME280;4676;42.678;23.244;2022-12-07T21:44:35;93882.97;;;4.76;100.00
9277;BME280;4676;42.678;23.244;2022-12-07T21:47:01;93900.94;;;4.58;100.00
9277;BME280;4676;42.678;23.244;2022-12-07T21:49:28;93901.19;;;4.44;100.00
9277;BME280;4676;42.678;23.244;2022-12-07T21:51:55;93893.69;;;4.44;100.00
9277;BME280;4676;42.678;23.244;2022-12-07T21:54:23;93895.13;;;4.54;100.00
9277;BME280;4676;42.678;23.244;2022-12-07T21:56:50;93889.34;;;4.52;100.00
9277;BME280;4676;42.678;23.244;2022-12-07T21:59:17;93885.31;;;4.45;100.00
9277;BME280;4676;42.678;23.244;2022-12-07T22:01:45;93890.28;;;4.47;100.00
9277;BME280;4676;42.678;23.244;2022-12-07T22:04:14;93882.50;;;4.59;100.00
9277;BME280;4676;42.678;23.244;2022-12-07T22:06:43;93894.50;;;4.46;100.00
9277;BME280;4676;42.678;23.244;2022-12-07T22:09:10;93883.56;;;4.49;100.00
9277;BME280;4676;42.678;23.244;2022-12-07T22:11:38;93897.69;;;4.53;100.00
9277;BME280;4676;42.678;23.244;2022-12-07T22:14:06;93883.34;;;4.60;100.00
9277;BME280;4676;42.678;23.244;2022-12-07T22:16:51;93890.06;;;4.58;100.00
9277;BME280;4676;42.678;23.244;2022-12-07T22:19:18;93884.25;;;4.56;100.00
9277;BME280;4676;42.678;23.244;2022-12-07T22:21:45;93885.03;;;4.58;100.00
9277;BME280;4676;42.678;23.244;2022-12-07T22:24:12;93891.41;;;4.74;100.00
9277;BME280;4676;42.678;23.244;2022-12-07T22:26:41;93883.97;;;4.69;100.00
9277;BME280;4676;42.678;23.244;2022-12-07T22:29:08;93887.16;;;4.77;100.00
9277;BME280;4676;42.678;23.244;2022-12-07T22:31:35;93875.66;;;4.67;100.00
9277;BME280;4676;42.678;23.244;2022-12-07T22:34:02;93882.97;;;4.76;100.00
9277;BME280;4676;42.678;23.244;2022-12-07T22:36:29;93871.00;;;4.89;100.00
9277;BME280;4676;42.678;23.244;2022-12-07T22:38:56;93881.91;;;4.86;100.00
9277;BME280;4676;42.678;23.244;2022-12-07T22:41:25;93854.59;;;4.74;100.00
9277;BME280;4676;42.678;23.244;2022-12-07T22:43:54;93875.31;;;4.82;100.00
9277;BME280;4676;42.678;23.244;2022-12-07T22:46:22;93875.88;;;4.95;100.00
9277;BME280;4676;42.678;23.244;2022-12-07T22:48:49;93873.19;;;5.02;100.00
9277;BME280;4676;42.678;23.244;2022-12-07T22:51:20;93867.50;;;4.94;100.00
9277;BME280;4676;42.678;23.244;2022-12-07T22:53:47;93864.78;;;5.03;100.00
9277;BME280;4676;42.678;23.244;2022-12-07T22:56:14;93869.69;;;5.10;100.00
9277;BME280;4676;42.678;23.244;2022-12-07T22:58:41;93865.59;;;5.06;100.00
9277;BME280;4676;42.678;23.244;2022-12-07T23:01:11;93867.19;;;5.10;100.00
9277;BME280;4676;42.678;23.244;2022-12-07T23:03:38;93858.09;;;5.04;100.00
9277;BME280;4676;42.678;23.244;2022-12-07T23:06:06;93842.38;;;4.96;100.00
9277;BME280;4676;42.678;23.244;2022-12-07T23:08:34;93846.75;;;4.88;100.00
9277;BME280;4676;42.678;23.244;2022-12-07T23:11:01;93861.75;;;4.89;100.00
9277;BME280;4676;42.678;23.244;2022-12-07T23:13:28;93867.66;;;4.88;100.00
9277;BME280;4676;42.678;23.244;2022-12-07T23:15:58;93834.63;;;4.68;100.00
9277;BME280;4676;42.678;23.244;2022-12-07T23:18:26;93837.94;;;4.70;100.00
9277;BME280;4676;42.678;23.244;2022-12-07T23:20:55;93858.63;;;4.81;100.00
9277;BME280;4676;42.678;23.244;2022-12-07T23:23:22;93863.81;;;4.72;100.00
9277;BME280;4676;42.678;23.244;2022-12-07T23:25:49;93851.19;;;4.77;100.00
9277;BME280;4676;42.678;23.244;2022-12-07T23:28:16;93862.03;;;4.77;100.00
9277;BME280;4676;42.678;23.244;2022-12-07T23:30:43;93862.06;;;4.76;100.00
9277;BME280;4676;42.678;23.244;2022-12-07T23:33:10;93840.59;;;4.64;100.00
9277;BME280;4676;42.678;23.244;2022-12-07T23:35:38;93867.84;;;4.79;100.00
9277;BME280;4676;42.678;23.244;2022-12-07T23:38:05;93861.97;;;4.80;100.00
9277;BME280;4676;42.678;23.244;2022-12-07T23:40:31;93872.78;;;4.84;100.00
9277;BME280;4676;42.678;23.244;2022-12-07T23:42:58;93879.78;;;4.68;100.00
9277;BME280;4676;42.678;23.244;2022-12-07T23:45:25;93884.09;;;4.63;100.00
9277;BME280;4676;42.678;23.244;2022-12-07T23:47:51;93884.94;;;4.64;100.00
9277;BME280;4676;42.678;23.244;2022-12-07T23:50:18;93889.91;;;4.65;100.00
9277;BME280;4676;42.678;23.244;2022-12-07T23:52:46;93888.38;;;4.58;100.00
9277;BME280;4676;42.678;23.244;2022-12-07T23:55:13;93877.56;;;4.54;100.00
9277;BME280;4676;42.678;23.244;2022-12-07T23:57:40;93891.81;;;4.54;100.00
